Time;durP1;ratioP1;P1;durP2;ratioP2;P2;SDS_P1;SDS_P2;PMS_P1;PMS_P2;Temp;Humidity;BMP_temperature;BMP_pressure;BME280_temperature;BME280_humidity;BME280_pressure;Samples;Min_cycle;Max_cycle;Signal;HPM_P1;HPM_P2
2020/12/23 00:01:17;;;;;;;10.07;5.05;;;5.60;99.90;;;;;;5001449;28;20485;-74
2020/12/23 00:03:42;;;;;;;8.70;4.68;;;5.40;99.90;;;;;;4997142;28;20121;-74
2020/12/23 00:06:08;;;;;;;11.32;5.40;;;5.50;99.90;;;;;;4985662;28;20109;-74
2020/12/23 00:08:34;;;;;;;11.02;6.32;;;5.40;99.90;;;;;;4988396;28;20038;-74
2020/12/23 00:11:00;;;;;;;10.18;6.07;;;5.40;99.90;;;;;;4985459;28;20035;-74
2020/12/23 00:13:26;;;;;;;14.40;9.73;;;5.40;99.90;;;;;;5003882;28;20036;-74
2020/12/23 00:15:51;;;;;;;10.55;6.20;;;5.40;99.90;;;;;;4990285;28;20556;-74
2020/12/23 00:18:17;;;;;;;11.07;6.68;;;5.30;99.90;;;;;;4989794;28;20030;-74
2020/12/23 00:20:43;;;;;;;12.13;5.97;;;5.30;99.90;;;;;;5001902;28;20065;-74
2020/12/23 00:23:09;;;;;;;9.90;4.50;;;5.30;99.90;;;;;;4991697;28;20030;-74
2020/12/23 00:25:35;;;;;;;8.98;4.93;;;5.30;99.90;;;;;;5006317;28;20046;-74
2020/12/23 00:28:00;;;;;;;8.50;4.90;;;5.30;99.90;;;;;;4992640;28;20555;-74
2020/12/23 00:30:26;;;;;;;15.43;6.60;;;5.40;99.90;;;;;;5000001;28;20034;-74
2020/12/23 00:32:52;;;;;;;12.50;4.68;;;5.40;99.90;;;;;;4989079;28;20035;-74
2020/12/23 00:35:17;;;;;;;8.98;3.58;;;5.40;99.90;;;;;;4989220;28;20085;-74
2020/12/23 00:37:43;;;;;;;5.82;2.67;;;5.40;99.90;;;;;;5008561;28;20026;-74
2020/12/23 00:40:09;;;;;;;6.35;3.30;;;5.40;99.90;;;;;;5005172;28;20576;-73
2020/12/23 00:42:35;;;;;;;7.97;3.75;;;5.30;99.90;;;;;;5008289;28;20629;-74
2020/12/23 00:45:01;;;;;;;6.43;3.88;;;5.30;99.90;;;;;;5000123;28;20065;-74
2020/12/23 00:47:26;;;;;;;8.73;4.43;;;5.40;99.90;;;;;;4992002;28;20384;-74
2020/12/23 00:49:52;;;;;;;7.82;3.42;;;5.40;99.90;;;;;;4998977;28;20048;-74
2020/12/23 00:52:18;;;;;;;6.75;3.05;;;5.30;99.90;;;;;;4991783;28;20023;-74
2020/12/23 00:54:44;;;;;;;8.18;3.15;;;5.40;99.90;;;;;;5006898;28;20040;-74
2020/12/23 00:57:10;;;;;;;8.00;3.22;;;5.20;99.90;;;;;;4993675;28;20027;-74
2020/12/23 00:59:36;;;;;;;9.68;4.57;;;5.20;99.90;;;;;;5003485;28;20045;-74
2020/12/23 01:02:02;;;;;;;10.40;6.05;;;5.20;99.90;;;;;;4992627;28;20029;-74
2020/12/23 01:04:29;;;;;;;11.38;4.40;;;5.30;99.90;;;;;;4996175;28;20045;-74
2020/12/23 01:06:55;;;;;;;12.00;5.85;;;5.40;99.90;;;;;;4989671;28;20041;-73
2020/12/23 01:09:21;;;;;;;6.82;3.10;;;5.40;99.90;;;;;;4998513;28;20116;-74
2020/12/23 01:11:48;;;;;;;8.95;2.20;;;5.40;99.90;;;;;;5000598;28;20117;-74
2020/12/23 01:14:14;;;;;;;5.18;2.00;;;5.50;99.90;;;;;;4990074;28;20038;-75
2020/12/23 01:16:40;;;;;;;5.32;2.00;;;5.50;99.90;;;;;;4995566;28;20026;-74
2020/12/23 01:19:06;;;;;;;4.00;2.00;;;5.50;99.90;;;;;;4988329;28;20401;-74
2020/12/23 01:21:31;;;;;;;5.22;2.45;;;5.50;99.90;;;;;;4993831;28;20533;-74
2020/12/23 01:23:57;;;;;;;7.10;3.22;;;5.50;99.90;;;;;;5003562;28;20042;-74
2020/12/23 01:26:22;;;;;;;7.82;3.47;;;5.60;99.90;;;;;;4995651;28;20526;-74
2020/12/23 01:28:48;;;;;;;6.10;3.13;;;5.70;99.90;;;;;;4994552;28;20057;-73
2020/12/23 01:31:14;;;;;;;6.57;3.70;;;5.70;99.90;;;;;;4997780;28;20025;-74
2020/12/23 01:33:41;;;;;;;6.60;3.17;;;5.70;99.90;;;;;;4990494;28;20045;-74
2020/12/23 01:36:06;;;;;;;5.55;2.90;;;5.80;99.90;;;;;;4989207;28;20032;-74
2020/12/23 01:38:32;;;;;;;5.90;2.97;;;5.80;99.90;;;;;;4988221;28;20039;-74
2020/12/23 01:40:59;;;;;;;7.10;2.65;;;5.90;99.90;;;;;;4993608;28;20037;-74
2020/12/23 01:43:25;;;;;;;9.18;2.50;;;5.90;99.90;;;;;;4988251;28;20981;-74
2020/12/23 01:45:51;;;;;;;7.80;3.13;;;6.00;99.90;;;;;;4987020;28;20123;-74
2020/12/23 01:48:20;;;;;;;6.82;2.50;;;6.00;99.90;;;;;;4996534;28;20426;-74
2020/12/23 01:50:46;;;;;;;9.70;4.35;;;6.00;99.90;;;;;;4999238;28;20530;-74
2020/12/23 01:53:14;;;;;;;13.80;3.90;;;6.10;99.90;;;;;;4992979;28;20535;-74
2020/12/23 01:55:43;;;;;;;6.82;3.30;;;6.00;99.90;;;;;;4987707;28;20401;-74
2020/12/23 01:58:08;;;;;;;10.70;4.20;;;6.10;99.90;;;;;;4994034;28;20030;-74
2020/12/23 02:00:34;;;;;;;8.40;3.90;;;6.10;99.90;;;;;;4998588;28;20037;-74
2020/12/23 02:03:04;;;;;;;6.68;3.17;;;6.20;99.90;;;;;;4994196;28;20041;-74
2020/12/23 02:05:30;;;;;;;6.90;3.17;;;6.20;99.90;;;;;;4995286;28;20062;-74
2020/12/23 02:07:56;;;;;;;9.38;3.65;;;6.20;99.90;;;;;;4994448;28;20080;-74
2020/12/23 02:10:21;;;;;;;7.93;3.72;;;6.10;99.90;;;;;;5003642;28;20034;-74
2020/12/23 02:12:47;;;;;;;7.13;3.15;;;6.20;99.90;;;;;;5004055;28;20026;-74
2020/12/23 02:15:14;;;;;;;5.63;2.85;;;6.20;99.90;;;;;;4997205;28;20089;-74
2020/12/23 02:17:41;;;;;;;7.80;3.95;;;6.20;99.90;;;;;;5001508;28;20022;-74
2020/12/23 02:20:09;;;;;;;8.32;3.58;;;6.10;99.90;;;;;;4989425;28;20034;-74
2020/12/23 02:22:35;;;;;;;7.22;3.17;;;6.20;99.90;;;;;;4990872;28;20068;-74
2020/12/23 02:25:02;;;;;;;9.15;2.90;;;6.20;99.90;;;;;;4991648;28;20077;-74
2020/12/23 02:27:28;;;;;;;7.57;2.70;;;6.10;99.90;;;;;;5000888;28;20615;-74
2020/12/23 02:29:56;;;;;;;6.85;2.92;;;6.10;99.90;;;;;;4989245;28;20030;-73
2020/12/23 02:32:22;;;;;;;6.18;2.63;;;6.10;99.90;;;;;;5000949;28;20037;-74
2020/12/23 02:34:48;;;;;;;6.68;2.60;;;6.20;99.90;;;;;;4992076;28;20041;-74
2020/12/23 02:37:14;;;;;;;6.50;2.20;;;6.00;99.90;;;;;;4996373;28;20061;-74
2020/12/23 02:39:44;;;;;;;6.68;2.90;;;5.90;99.90;;;;;;5002711;28;20061;-74
2020/12/23 02:42:10;;;;;;;6.82;2.92;;;6.00;99.90;;;;;;4993695;28;20056;-74
2020/12/23 02:44:35;;;;;;;7.32;2.80;;;6.00;99.90;;;;;;4993043;28;20472;-74
2020/12/23 02:47:08;;;;;;;5.93;2.17;;;6.00;99.90;;;;;;4997430;28;20033;-74
2020/12/23 02:49:34;;;;;;;6.65;2.75;;;6.00;99.90;;;;;;4991580;28;20057;-74
2020/12/23 02:52:00;;;;;;;6.93;2.50;;;6.00;99.90;;;;;;4998286;28;20037;-74
2020/12/23 02:54:25;;;;;;;5.90;2.55;;;6.00;99.90;;;;;;5004754;28;20052;-74
2020/12/23 02:56:51;;;;;;;8.38;2.97;;;5.90;99.90;;;;;;4996835;28;20069;-74
2020/12/23 02:59:18;;;;;;;7.13;3.63;;;5.70;99.90;;;;;;4988277;28;20031;-74
2020/12/23 03:01:44;;;;;;;8.02;3.47;;;5.80;99.90;;;;;;4985665;28;20041;-74
2020/12/23 03:04:10;;;;;;;6.82;3.28;;;5.80;99.90;;;;;;4991331;28;20381;-74
2020/12/23 03:06:36;;;;;;;7.30;3.65;;;5.80;99.90;;;;;;4994327;28;20385;-74
2020/12/23 03:09:05;;;;;;;11.00;4.05;;;5.70;99.90;;;;;;4996848;28;20037;-74
2020/12/23 03:11:30;;;;;;;7.53;4.03;;;5.70;99.90;;;;;;4997196;28;20042;-74
2020/12/23 03:13:56;;;;;;;8.00;3.72;;;5.70;99.90;;;;;;4999638;28;20038;-74
2020/12/23 03:16:22;;;;;;;7.80;3.15;;;5.70;99.90;;;;;;4994940;28;20054;-74
2020/12/23 03:18:48;;;;;;;8.52;3.17;;;5.60;99.90;;;;;;4999829;28;20385;-74
2020/12/23 03:21:13;;;;;;;6.68;2.65;;;5.60;99.90;;;;;;4994367;28;20030;-74
2020/12/23 03:23:39;;;;;;;5.50;2.20;;;5.60;99.90;;;;;;4998261;28;20052;-73
2020/12/23 03:26:05;;;;;;;5.25;2.50;;;5.60;99.90;;;;;;4988753;28;20041;-75
2020/12/23 03:28:32;;;;;;;5.90;2.60;;;5.50;99.90;;;;;;4985741;28;20101;-74
2020/12/23 03:30:58;;;;;;;5.43;2.20;;;5.50;99.90;;;;;;4997196;28;20072;-74
2020/12/23 03:33:24;;;;;;;5.78;2.10;;;5.50;99.90;;;;;;5000089;28;20042;-74
2020/12/23 03:35:50;;;;;;;7.82;2.30;;;5.50;99.90;;;;;;5002816;28;20438;-74
2020/12/23 03:38:16;;;;;;;7.85;2.65;;;5.40;99.90;;;;;;5002421;28;20464;-74
2020/12/23 03:40:41;;;;;;;7.10;2.60;;;5.50;99.90;;;;;;5002640;28;20025;-74
2020/12/23 03:43:07;;;;;;;8.82;2.80;;;5.60;99.90;;;;;;5005228;28;20424;-74
2020/12/23 03:45:33;;;;;;;6.97;2.88;;;5.50;99.90;;;;;;5000631;28;20428;-74
2020/12/23 03:47:58;;;;;;;5.60;2.28;;;5.60;99.90;;;;;;5002407;28;20465;-74
2020/12/23 03:50:24;;;;;;;7.72;2.95;;;5.50;99.90;;;;;;4996712;28;20069;-74
2020/12/23 03:52:50;;;;;;;12.43;3.53;;;5.50;99.90;;;;;;5003922;28;20033;-74
2020/12/23 03:55:15;;;;;;;7.47;2.70;;;5.50;99.90;;;;;;4996132;28;20121;-74
2020/12/23 03:57:41;;;;;;;7.35;3.03;;;5.50;99.90;;;;;;4998777;28;20076;-74
2020/12/23 04:00:09;;;;;;;11.60;3.17;;;5.50;99.90;;;;;;5005064;28;20042;-74
2020/12/23 04:02:35;;;;;;;8.48;3.65;;;5.30;99.90;;;;;;5000564;28;20492;-74
2020/12/23 04:05:00;;;;;;;7.40;3.28;;;5.40;99.90;;;;;;5003489;28;20034;-75
2020/12/23 04:07:27;;;;;;;7.80;2.72;;;5.50;99.90;;;;;;4999832;28;20030;-74
2020/12/23 04:09:53;;;;;;;6.68;2.50;;;5.60;99.90;;;;;;4999875;28;20038;-74
2020/12/23 04:12:19;;;;;;;6.43;2.72;;;5.50;99.90;;;;;;5003767;28;20026;-74
2020/12/23 04:14:45;;;;;;;5.63;2.13;;;5.50;99.90;;;;;;5003111;28;20038;-74
2020/12/23 04:17:11;;;;;;;5.13;1.65;;;5.60;99.90;;;;;;4992415;28;20022;-74
2020/12/23 04:19:37;;;;;;;5.85;2.00;;;5.60;99.90;;;;;;4994246;28;20049;-74
2020/12/23 04:22:03;;;;;;;6.10;1.70;;;5.70;99.90;;;;;;4985973;28;20066;-74
2020/12/23 04:24:29;;;;;;;3.83;1.27;;;5.70;99.90;;;;;;4995443;28;20549;-74
2020/12/23 04:26:54;;;;;;;2.65;0.95;;;5.80;99.90;;;;;;4999318;28;20025;-73
2020/12/23 04:29:20;;;;;;;5.10;1.63;;;5.90;99.90;;;;;;4999656;28;20050;-75
2020/12/23 04:31:46;;;;;;;4.25;1.20;;;5.90;99.90;;;;;;4994138;28;20671;-74
2020/12/23 04:34:11;;;;;;;3.53;1.13;;;5.90;99.90;;;;;;4998481;28;20037;-74
2020/12/23 04:36:37;;;;;;;7.45;1.80;;;6.00;99.90;;;;;;4996572;28;20026;-74
2020/12/23 04:39:04;;;;;;;3.42;1.13;;;6.00;99.90;;;;;;4989706;28;20081;-75
2020/12/23 04:41:30;;;;;;;2.95;1.10;;;6.10;99.90;;;;;;4995446;28;20465;-74
2020/12/23 04:43:57;;;;;;;2.65;1.00;;;6.20;99.90;;;;;;4999027;28;20044;-74
2020/12/23 04:46:25;;;;;;;4.38;1.17;;;6.20;99.90;;;;;;5002156;28;20061;-74
2020/12/23 04:48:57;;;;;;;5.35;1.10;;;6.20;99.90;;;;;;5002080;28;20112;-74
2020/12/23 04:51:33;;;;;;;3.75;1.20;;;6.10;99.90;;;;;;5001384;28;20593;-74
2020/12/23 04:54:01;;;;;;;5.03;1.50;;;6.10;99.90;;;;;;4999115;28;20156;-74
2020/12/23 04:56:28;;;;;;;4.63;1.65;;;6.20;99.90;;;;;;4986284;28;20057;-74
2020/12/23 04:58:58;;;;;;;4.10;1.15;;;6.20;99.90;;;;;;4997295;28;20037;-73
2020/12/23 05:01:24;;;;;;;4.10;1.25;;;6.20;99.90;;;;;;4996383;28;20034;-74
2020/12/23 05:03:54;;;;;;;3.80;1.20;;;6.20;99.90;;;;;;4996739;28;20381;-74
2020/12/23 05:06:24;;;;;;;5.70;1.50;;;6.20;99.90;;;;;;5006293;28;20095;-74
2020/12/23 05:08:50;;;;;;;4.95;1.60;;;6.10;99.90;;;;;;4992391;28;20493;-73
2020/12/23 05:11:17;;;;;;;5.35;1.40;;;6.20;99.90;;;;;;5001107;28;20038;-74
2020/12/23 05:13:43;;;;;;;5.50;1.15;;;6.20;99.90;;;;;;4999288;28;20030;-74
2020/12/23 05:16:22;;;;;;;4.07;1.42;;;6.20;99.90;;;;;;5006115;28;20511;-74
2020/12/23 05:18:48;;;;;;;4.45;1.42;;;6.10;99.90;;;;;;5006444;28;20528;-73
2020/12/23 05:21:17;;;;;;;3.67;1.50;;;6.00;99.90;;;;;;4995602;28;20568;-74
2020/12/23 05:23:45;;;;;;;6.90;1.63;;;6.10;99.90;;;;;;4992266;28;20188;-74
2020/12/23 05:26:11;;;;;;;4.35;1.70;;;6.10;99.90;;;;;;4996569;28;20035;-74
2020/12/23 05:28:37;;;;;;;3.70;1.77;;;6.10;99.90;;;;;;5007540;28;20065;-74
2020/12/23 05:31:08;;;;;;;5.13;1.60;;;6.10;99.90;;;;;;4998299;28;20034;-74
2020/12/23 05:33:39;;;;;;;5.38;1.70;;;6.10;99.90;;;;;;4988473;28;20064;-74
2020/12/23 05:36:10;;;;;;;4.90;1.23;;;6.10;99.90;;;;;;5000696;28;20552;-74
2020/12/23 05:38:37;;;;;;;5.78;2.38;;;6.10;99.90;;;;;;5006317;28;20037;-74
2020/12/23 05:41:05;;;;;;;5.70;2.25;;;6.10;99.90;;;;;;4995993;28;20499;-74
2020/12/23 05:43:32;;;;;;;4.40;1.77;;;6.10;99.90;;;;;;5003177;28;20454;-74
2020/12/23 05:46:08;;;;;;;4.85;1.90;;;6.10;99.90;;;;;;5007252;28;20029;-74
2020/12/23 05:48:37;;;;;;;6.07;2.00;;;6.20;99.90;;;;;;4998861;28;20524;-74
2020/12/23 05:51:05;;;;;;;6.38;1.83;;;6.10;99.90;;;;;;5001764;28;20551;-74
2020/12/23 05:53:34;;;;;;;5.80;2.28;;;6.00;99.90;;;;;;4990926;28;20092;-74
2020/12/23 05:56:01;;;;;;;5.38;1.75;;;6.10;99.90;;;;;;5004505;28;20068;-74
2020/12/23 05:58:27;;;;;;;6.10;1.95;;;6.10;99.90;;;;;;5005662;28;20053;-74
2020/12/23 06:00:54;;;;;;;8.93;2.00;;;6.20;99.90;;;;;;5002702;28;20034;-74
2020/12/23 06:03:24;;;;;;;8.05;1.90;;;6.20;99.90;;;;;;5003334;28;20412;-74
2020/12/23 06:06:00;;;;;;;8.20;2.38;;;6.10;99.90;;;;;;5000198;28;20037;-74
2020/12/23 06:08:30;;;;;;;6.95;2.30;;;5.90;99.90;;;;;;5003200;28;20362;-75
2020/12/23 06:11:28;;;;;;;7.90;2.63;;;6.10;99.90;;;;;;4988330;28;20048;-73
2020/12/23 06:13:56;;;;;;;8.88;2.90;;;6.00;99.90;;;;;;5000025;28;20029;-74
2020/12/23 06:16:48;;;;;;;9.18;2.58;;;6.00;99.90;;;;;;4997970;28;20370;-74
2020/12/23 06:19:29;;;;;;;7.95;3.00;;;5.90;99.90;;;;;;4991817;28;20095;-74
2020/12/23 06:21:58;;;;;;;9.27;3.60;;;5.90;99.90;;;;;;5000492;28;20407;-74
2020/12/23 06:24:25;;;;;;;10.40;3.58;;;5.90;99.90;;;;;;4997299;28;20034;-74
2020/12/23 06:26:54;;;;;;;9.63;3.28;;;5.90;99.90;;;;;;4996993;28;20049;-74
2020/12/23 06:29:22;;;;;;;8.23;3.53;;;5.90;99.90;;;;;;4988711;28;20057;-74
2020/12/23 06:31:52;;;;;;;9.27;4.32;;;5.90;99.90;;;;;;5000583;28;20412;-74
2020/12/23 06:34:27;;;;;;;8.90;3.05;;;5.80;99.90;;;;;;5002636;28;20457;-73
2020/12/23 06:36:54;;;;;;;7.63;3.00;;;5.90;99.90;;;;;;4998322;28;20033;-74
2020/12/23 06:39:40;;;;;;;9.18;3.85;;;5.80;99.90;;;;;;4999355;28;20436;-74
2020/12/23 06:42:05;;;;;;;8.88;3.47;;;5.90;99.90;;;;;;4994901;28;20109;-74
2020/12/23 06:44:44;;;;;;;10.15;4.25;;;5.90;99.90;;;;;;4999563;28;20444;-74
2020/12/23 06:47:14;;;;;;;11.25;4.63;;;5.90;99.90;;;;;;5000510;28;20026;-74
2020/12/23 06:49:53;;;;;;;14.00;4.72;;;6.00;99.90;;;;;;5006795;28;20053;-74
2020/12/23 06:52:22;;;;;;;9.32;3.90;;;6.00;99.90;;;;;;5000782;28;20022;-74
2020/12/23 06:54:51;;;;;;;8.07;3.97;;;6.00;99.90;;;;;;5000303;28;20122;-74
2020/12/23 06:57:36;;;;;;;10.02;4.32;;;6.00;99.90;;;;;;5000217;28;20378;-74
2020/12/23 07:00:13;;;;;;;10.43;4.22;;;5.90;99.90;;;;;;4989996;28;20034;-74
2020/12/23 07:02:39;;;;;;;9.55;4.32;;;6.00;99.90;;;;;;4997880;28;20482;-74
2020/12/23 07:05:04;;;;;;;11.38;4.90;;;6.00;99.90;;;;;;5001823;28;20049;-74
2020/12/23 07:07:39;;;;;;;13.95;5.35;;;6.00;99.90;;;;;;4997113;28;20487;-74
2020/12/23 07:10:14;;;;;;;11.70;4.70;;;6.00;99.90;;;;;;5002460;28;20057;-74
2020/12/23 07:12:55;;;;;;;9.63;4.80;;;6.00;99.90;;;;;;4993954;28;20046;-74
2020/12/23 07:15:23;;;;;;;11.80;5.63;;;5.90;99.90;;;;;;5004270;28;20113;-73
2020/12/23 07:18:12;;;;;;;9.45;4.43;;;5.90;99.90;;;;;;5002544;28;20026;-74
2020/12/23 07:20:46;;;;;;;8.15;3.10;;;5.90;99.90;;;;;;4992698;28;20512;-74
2020/12/23 07:23:14;;;;;;;8.05;3.30;;;6.00;99.90;;;;;;5000180;28;20495;-74
2020/12/23 07:25:52;;;;;;;13.38;6.53;;;6.00;99.90;;;;;;4995578;28;20566;-74
2020/12/23 07:28:39;;;;;;;10.10;5.15;;;6.00;99.90;;;;;;4998264;28;20195;-74
2020/12/23 07:31:06;;;;;;;9.85;4.30;;;6.10;99.90;;;;;;4996771;28;20165;-74
2020/12/23 07:33:33;;;;;;;7.05;2.85;;;6.10;99.90;;;;;;5001101;28;20529;-74
2020/12/23 07:36:01;;;;;;;8.32;3.10;;;6.00;99.90;;;;;;5002343;28;20485;-74
2020/12/23 07:38:31;;;;;;;7.88;2.90;;;6.10;99.90;;;;;;4995664;28;20034;-74
2020/12/23 07:40:58;;;;;;;12.57;3.72;;;6.10;99.90;;;;;;5000327;28;20362;-74
2020/12/23 07:43:25;;;;;;;9.20;3.95;;;6.00;99.90;;;;;;4999583;28;20080;-74
2020/12/23 07:45:51;;;;;;;8.27;3.67;;;6.00;99.90;;;;;;4997205;28;20543;-74
2020/12/23 07:48:18;;;;;;;10.23;3.33;;;6.10;99.90;;;;;;4999164;28;20036;-74
2020/12/23 07:50:47;;;;;;;10.13;3.55;;;6.00;99.90;;;;;;4998966;28;20029;-73
2020/12/23 07:53:17;;;;;;;12.00;2.83;;;6.00;99.90;;;;;;4996507;28;20096;-74
2020/12/23 07:55:44;;;;;;;8.15;3.13;;;6.00;99.90;;;;;;4997651;28;20037;-74
2020/12/23 07:58:11;;;;;;;5.88;2.50;;;6.10;99.90;;;;;;4999267;28;20027;-74
2020/12/23 08:00:38;;;;;;;11.90;4.30;;;6.10;99.90;;;;;;4999863;28;20428;-74
2020/12/23 08:03:08;;;;;;;12.57;6.70;;;6.10;99.90;;;;;;4998548;28;20038;-73
2020/12/23 08:05:35;;;;;;;12.25;6.13;;;6.10;99.90;;;;;;5002552;28;20121;-74
2020/12/23 08:08:01;;;;;;;12.90;5.00;;;6.10;99.90;;;;;;4998374;28;20042;-74
2020/12/23 08:10:27;;;;;;;8.73;4.82;;;6.00;99.90;;;;;;4997440;28;20563;-74
2020/12/23 08:12:57;;;;;;;10.10;4.05;;;6.10;99.90;;;;;;4998251;28;20404;-74
2020/12/23 08:15:27;;;;;;;10.13;4.53;;;6.10;99.90;;;;;;5001346;28;20045;-74
2020/12/23 08:18:07;;;;;;;9.85;4.93;;;6.10;99.90;;;;;;4996379;28;20200;-74
2020/12/23 08:20:33;;;;;;;11.15;6.05;;;6.10;99.90;;;;;;4996931;28;20489;-74
2020/12/23 08:23:00;;;;;;;19.67;10.20;;;6.20;99.90;;;;;;4999075;28;20064;-74
2020/12/23 08:25:27;;;;;;;30.05;18.20;;;6.20;99.90;;;;;;4999229;28;20384;-74
2020/12/23 08:27:56;;;;;;;32.50;16.73;;;6.30;99.90;;;;;;4993394;28;20105;-74
2020/12/23 08:30:27;;;;;;;34.72;18.52;;;6.30;99.90;;;;;;4995725;28;20037;-74
2020/12/23 08:33:16;;;;;;;33.20;18.40;;;6.20;99.90;;;;;;4997574;28;20030;-74
2020/12/23 08:35:46;;;;;;;28.90;15.65;;;6.30;99.90;;;;;;4993665;28;20053;-74
2020/12/23 08:38:20;;;;;;;25.48;12.77;;;6.40;99.90;;;;;;5002056;28;20497;-74
2020/12/23 08:40:50;;;;;;;18.85;11.02;;;6.50;99.90;;;;;;5005394;28;20034;-74
2020/12/23 08:43:24;;;;;;;22.50;12.50;;;6.50;99.90;;;;;;4999245;28;20026;-74
2020/12/23 08:45:50;;;;;;;23.90;11.80;;;6.60;99.90;;;;;;5000733;28;20453;-74
2020/12/23 08:48:23;;;;;;;21.23;10.85;;;6.60;99.90;;;;;;4983770;28;20034;-74
2020/12/23 08:51:07;;;;;;;16.35;9.25;;;6.60;99.90;;;;;;4998316;28;20476;-74
2020/12/23 08:53:35;;;;;;;14.15;8.80;;;6.70;99.90;;;;;;5000138;28;20578;-74
2020/12/23 08:56:19;;;;;;;14.88;6.63;;;6.70;99.90;;;;;;4996854;28;20444;-74
2020/12/23 08:58:48;;;;;;;10.82;6.05;;;6.80;99.90;;;;;;5000036;28;20036;-74
2020/12/23 09:01:22;;;;;;;10.07;5.10;;;6.90;99.90;;;;;;4994273;28;20034;-74
2020/12/23 09:04:05;;;;;;;10.40;5.30;;;6.90;99.90;;;;;;5002165;28;20453;-74
2020/12/23 09:06:31;;;;;;;11.18;5.53;;;7.00;99.90;;;;;;4994901;28;20038;-74
2020/12/23 09:09:26;;;;;;;12.68;5.75;;;7.10;99.90;;;;;;4998980;28;20030;-74
2020/12/23 09:11:53;;;;;;;9.07;5.13;;;7.20;99.90;;;;;;4981944;28;20052;-74
2020/12/23 09:14:21;;;;;;;11.07;5.82;;;7.20;99.90;;;;;;5000009;28;20033;-74
2020/12/23 09:16:57;;;;;;;25.17;14.70;;;7.30;99.90;;;;;;5002615;28;20064;-74
2020/12/23 09:19:51;;;;;;;26.92;17.77;;;7.40;99.90;;;;;;5001044;28;20089;-74
2020/12/23 09:22:31;;;;;;;27.85;18.15;;;7.40;99.90;;;;;;4994457;28;20109;-74
2020/12/23 09:25:21;;;;;;;22.08;12.85;;;7.50;99.90;;;;;;4992507;28;20132;-74
2020/12/23 09:27:51;;;;;;;13.00;7.75;;;7.60;99.90;;;;;;4991490;28;20088;-74
2020/12/23 09:30:35;;;;;;;11.27;5.68;;;7.70;99.90;;;;;;4995918;28;20064;-74
2020/12/23 09:33:01;;;;;;;11.30;5.30;;;7.70;99.90;;;;;;5001285;28;20370;-73
2020/12/23 09:35:28;;;;;;;12.95;4.80;;;7.80;99.90;;;;;;4999531;28;20384;-74
2020/12/23 09:38:30;;;;;;;106.50;51.15;;;7.90;99.90;;;;;;5009134;28;20029;-74
2020/12/23 09:40:59;;;;;;;52.13;28.85;;;8.00;99.90;;;;;;4996877;28;20401;-74
2020/12/23 09:43:27;;;;;;;32.00;15.60;;;8.10;99.90;;;;;;5003464;28;20062;-73
2020/12/23 09:45:54;;;;;;;29.15;16.52;;;8.20;99.90;;;;;;4999699;28;20038;-73
2020/12/23 09:48:22;;;;;;;27.67;15.98;;;8.20;99.90;;;;;;4999868;28;20069;-74
2020/12/23 09:50:48;;;;;;;18.85;8.23;;;8.30;99.90;;;;;;4995653;28;20576;-74
2020/12/23 09:53:14;;;;;;;13.75;6.72;;;8.40;99.90;;;;;;4998662;28;20369;-74
2020/12/23 09:55:43;;;;;;;12.98;6.38;;;8.50;99.90;;;;;;4994545;28;20030;-74
2020/12/23 09:58:10;;;;;;;10.20;4.93;;;8.50;99.90;;;;;;4998066;28;20064;-74
2020/12/23 10:00:36;;;;;;;11.70;4.22;;;8.60;99.90;;;;;;4990839;28;20026;-73
2020/12/23 10:03:02;;;;;;;9.15;4.00;;;8.70;99.90;;;;;;4989365;28;20018;-73
2020/12/23 10:05:29;;;;;;;8.38;3.35;;;8.70;99.90;;;;;;4999150;28;20037;-74
2020/12/23 10:07:54;;;;;;;6.90;2.95;;;8.80;99.90;;;;;;5001549;28;20252;-73
2020/12/23 10:10:20;;;;;;;9.18;2.35;;;8.90;99.90;;;;;;5002093;28;20473;-74
2020/12/23 10:12:46;;;;;;;6.45;2.47;;;9.00;99.90;;;;;;5003863;28;20022;-74
2020/12/23 10:15:11;;;;;;;10.32;2.85;;;8.90;99.90;;;;;;4998473;28;20469;-74
2020/12/23 10:17:37;;;;;;;13.93;2.78;;;9.00;99.90;;;;;;4996755;28;20417;-74
2020/12/23 10:20:07;;;;;;;7.90;3.00;;;9.00;99.90;;;;;;5001141;28;20065;-74
2020/12/23 10:22:32;;;;;;;10.43;4.18;;;9.00;99.90;;;;;;5001158;28;20030;-74
2020/12/23 10:24:58;;;;;;;7.70;3.58;;;9.00;99.90;;;;;;5000818;28;20049;-73
2020/12/23 10:27:24;;;;;;;9.45;3.83;;;9.10;99.90;;;;;;5001857;28;20524;-74
2020/12/23 10:29:50;;;;;;;13.40;4.38;;;9.20;99.90;;;;;;4990907;28;20046;-74
2020/12/23 10:32:15;;;;;;;9.27;3.58;;;9.10;99.90;;;;;;5002240;28;20055;-74
2020/12/23 10:34:41;;;;;;;10.60;3.63;;;9.20;99.90;;;;;;4996603;28;20040;-73
2020/12/23 10:37:07;;;;;;;10.43;3.60;;;9.20;99.90;;;;;;5000812;28;20034;-74
2020/12/23 10:39:33;;;;;;;11.32;3.22;;;9.20;99.90;;;;;;5001593;28;20111;-74
2020/12/23 10:41:58;;;;;;;13.48;5.13;;;9.20;99.90;;;;;;5000813;28;20034;-74
2020/12/23 10:44:24;;;;;;;12.57;5.05;;;9.20;99.90;;;;;;4993932;28;20300;-73
2020/12/23 10:46:57;;;;;;;15.05;5.68;;;9.20;99.90;;;;;;5002908;28;20599;-74
2020/12/23 10:49:24;;;;;;;12.30;4.45;;;9.30;99.90;;;;;;4995695;28;20050;-74
2020/12/23 10:51:51;;;;;;;10.50;5.05;;;9.30;99.90;;;;;;5002592;28;20026;-74
2020/12/23 10:54:17;;;;;;;11.35;4.53;;;9.30;99.90;;;;;;4995450;28;20301;-74
2020/12/23 10:56:43;;;;;;;19.17;6.70;;;9.30;99.90;;;;;;4997950;28;20073;-74
2020/12/23 10:59:09;;;;;;;25.63;12.98;;;9.30;99.90;;;;;;5001124;28;20030;-75
2020/12/23 11:01:34;;;;;;;21.25;10.90;;;9.30;99.90;;;;;;4997861;28;20365;-73
2020/12/23 11:04:00;;;;;;;22.33;8.65;;;9.30;99.90;;;;;;4991994;28;20131;-75
2020/12/23 11:06:26;;;;;;;42.58;23.92;;;9.40;99.90;;;;;;4997668;28;20120;-75
2020/12/23 11:08:51;;;;;;;55.88;31.95;;;9.40;99.90;;;;;;4991616;28;20049;-75
2020/12/23 11:11:17;;;;;;;39.45;20.95;;;9.40;99.90;;;;;;4994465;28;20118;-75
2020/12/23 11:13:43;;;;;;;15.05;7.90;;;9.40;99.90;;;;;;5001554;28;20038;-75
2020/12/23 11:16:18;;;;;;;26.13;13.43;;;9.40;99.90;;;;;;5001887;28;20065;-75
2020/12/23 11:18:45;;;;;;;29.92;12.00;;;9.50;99.90;;;;;;5005618;28;20489;-75
2020/12/23 11:21:12;;;;;;;23.20;10.05;;;9.60;99.90;;;;;;4992404;28;20034;-77
2020/12/23 11:23:38;;;;;;;15.90;6.70;;;9.60;99.90;;;;;;4996164;28;20038;-76
2020/12/23 11:26:04;;;;;;;15.25;6.50;;;9.60;99.90;;;;;;4999482;28;20040;-75
2020/12/23 11:28:32;;;;;;;16.23;6.97;;;9.70;99.90;;;;;;4999588;28;20057;-75
2020/12/23 11:31:00;;;;;;;23.20;8.18;;;9.70;99.90;;;;;;4997465;28;20030;-75
2020/12/23 11:33:29;;;;;;;19.90;11.45;;;9.70;99.90;;;;;;5000081;28;20030;-75
2020/12/23 11:35:55;;;;;;;20.70;11.85;;;9.80;99.90;;;;;;4998713;28;20186;-75
2020/12/23 11:38:21;;;;;;;19.83;10.23;;;9.80;99.90;;;;;;5000475;28;20813;-75
2020/12/23 11:40:47;;;;;;;17.08;7.68;;;9.90;99.90;;;;;;4999959;28;20030;-75
2020/12/23 11:43:13;;;;;;;18.27;8.32;;;9.90;99.90;;;;;;4993451;28;20026;-75
2020/12/23 11:45:38;;;;;;;14.20;7.72;;;9.90;99.90;;;;;;4995943;28;20477;-75
2020/12/23 11:48:04;;;;;;;10.05;4.55;;;10.00;99.90;;;;;;5001368;28;20056;-75
2020/12/23 11:50:29;;;;;;;26.75;15.80;;;10.00;99.90;;;;;;4999210;28;20488;-75
2020/12/23 11:52:55;;;;;;;20.13;9.65;;;10.00;99.90;;;;;;4982867;28;20026;-75
2020/12/23 11:55:21;;;;;;;11.48;4.80;;;10.00;99.90;;;;;;4999822;28;20033;-75
2020/12/23 11:57:46;;;;;;;12.45;4.50;;;10.10;99.90;;;;;;4994310;28;20030;-75
2020/12/23 12:00:13;;;;;;;14.48;4.35;;;10.10;99.90;;;;;;4998190;28;20513;-75
2020/12/23 12:02:39;;;;;;;11.40;4.28;;;10.20;99.90;;;;;;4996217;28;20025;-75
2020/12/23 12:05:07;;;;;;;11.90;5.97;;;10.30;99.90;;;;;;4998471;28;20042;-75
2020/12/23 12:07:33;;;;;;;13.60;6.07;;;10.40;99.90;;;;;;4991358;28;20466;-75
2020/12/23 12:09:58;;;;;;;14.52;7.38;;;10.40;99.90;;;;;;4994991;28;20081;-75
2020/12/23 12:12:27;;;;;;;13.48;7.03;;;10.50;99.90;;;;;;4994111;28;20371;-75
2020/12/23 12:14:53;;;;;;;14.35;7.15;;;10.50;99.90;;;;;;4999205;28;20466;-75
2020/12/23 12:17:19;;;;;;;13.02;7.03;;;10.50;99.90;;;;;;4995818;28;20033;-75
2020/12/23 12:19:44;;;;;;;14.55;6.20;;;10.60;99.90;;;;;;4996648;28;20089;-75
2020/12/23 12:22:10;;;;;;;11.70;5.50;;;10.70;99.90;;;;;;4993087;28;20412;-75
2020/12/23 12:24:36;;;;;;;15.68;9.70;;;10.70;99.90;;;;;;4994353;28;20077;-76
2020/12/23 12:27:01;;;;;;;18.85;9.55;;;10.80;99.90;;;;;;4994432;28;20041;-75
2020/12/23 12:29:27;;;;;;;14.90;7.93;;;10.90;99.90;;;;;;4996691;28;20065;-75
2020/12/23 12:31:53;;;;;;;14.48;6.63;;;10.90;99.90;;;;;;4996665;28;20059;-75
2020/12/23 12:34:18;;;;;;;10.82;5.28;;;11.00;99.90;;;;;;4993568;28;20487;-76
2020/12/23 12:36:44;;;;;;;18.45;5.05;;;11.10;99.90;;;;;;5001407;28;20029;-75
2020/12/23 12:39:10;;;;;;;19.75;10.95;;;11.20;99.90;;;;;;5003107;28;20037;-75
2020/12/23 12:41:36;;;;;;;18.77;5.13;;;11.20;99.90;;;;;;4999883;28;20615;-75
2020/12/23 12:44:01;;;;;;;15.23;4.90;;;11.30;99.90;;;;;;4996880;28;20038;-75
2020/12/23 12:46:27;;;;;;;13.23;6.18;;;11.30;99.90;;;;;;4996915;28;20610;-75
2020/12/23 12:48:53;;;;;;;12.52;5.88;;;11.40;99.90;;;;;;4992000;28;20116;-75
2020/12/23 12:51:26;;;;;;;13.93;6.78;;;11.40;99.90;;;;;;5000817;28;20268;-75
2020/12/23 12:53:51;;;;;;;18.13;10.20;;;11.50;99.90;;;;;;4998022;28;20034;-75
2020/12/23 12:56:29;;;;;;;15.38;5.20;;;11.40;99.90;;;;;;4991358;28;20477;-75